Angelica, New York
Current Conditions -  °F | °C
As of 9:56 AM on Monday 24 Nov 2014 (Local Time) from KELZ Reporting Station
Overcast Overcast  
Wind Chill: 59°   Ceiling: 2500
Heat Index: 59°   Visibility: 10mi
Dew Point: 50°   Wind: 17mph
Humidity: 72%   Direction: 190°S
Pressure: 29.44"   Gusts: 31mph
Location:  42.31°N, 78.02°W
Report Text: KELZ 241456Z AUTO 19015G27KT 10SM BKN025 BKN030 OVC055 15/10 A2944 RMK AO2 PK WND 21033/1442 RAB1359E18 SLP969 P0000 60000 T01500100 58002
Loading
Personal Weather Stations






























Interactive Weather Map New forecast layout! Learn more

10-Day Weather Forecast

Advertisements
Track Severe Weather on mobile